sensor_id;sensor_type;location;lat;lon;timestamp;P1;durP1;ratioP1;P2;durP2;ratioP2
46116;SDS011;32591;48.102;11.772;2022-12-29T00:01:36;2.40;;;1.20;;
46116;SDS011;32591;48.102;11.772;2022-12-29T00:04:04;1.42;;;1.02;;
46116;SDS011;32591;48.102;11.772;2022-12-29T00:06:32;1.48;;;1.15;;
46116;SDS011;32591;48.102;11.772;2022-12-29T00:08:59;1.10;;;0.70;;
46116;SDS011;32591;48.102;11.772;2022-12-29T00:13:53;1.65;;;0.82;;
46116;SDS011;32591;48.102;11.772;2022-12-29T00:16:42;2.13;;;1.00;;
46116;SDS011;32591;48.102;11.772;2022-12-29T00:19:11;2.95;;;1.30;;
46116;SDS011;32591;48.102;11.772;2022-12-29T00:21:52;2.08;;;1.15;;
46116;SDS011;32591;48.102;11.772;2022-12-29T00:24:37;1.75;;;0.80;;
46116;SDS011;32591;48.102;11.772;2022-12-29T00:27:22;2.03;;;1.00;;
46116;SDS011;32591;48.102;11.772;2022-12-29T00:30:07;2.30;;;0.80;;
46116;SDS011;32591;48.102;11.772;2022-12-29T00:32:55;2.05;;;0.80;;
46116;SDS011;32591;48.102;11.772;2022-12-29T00:35:42;1.48;;;0.95;;
46116;SDS011;32591;48.102;11.772;2022-12-29T00:38:12;2.13;;;0.98;;
46116;SDS011;32591;48.102;11.772;2022-12-29T00:40:58;2.00;;;1.02;;
46116;SDS011;32591;48.102;11.772;2022-12-29T00:43:42;0.85;;;0.73;;
46116;SDS011;32591;48.102;11.772;2022-12-29T00:46:27;0.95;;;0.65;;
46116;SDS011;32591;48.102;11.772;2022-12-29T00:48:56;1.20;;;0.68;;
46116;SDS011;32591;48.102;11.772;2022-12-29T00:51:40;1.30;;;1.02;;
46116;SDS011;32591;48.102;11.772;2022-12-29T00:54:08;0.75;;;0.60;;
46116;SDS011;32591;48.102;11.772;2022-12-29T00:56:35;3.00;;;0.70;;
46116;SDS011;32591;48.102;11.772;2022-12-29T01:01:29;1.30;;;0.90;;
46116;SDS011;32591;48.102;11.772;2022-12-29T01:03:58;1.27;;;0.75;;
46116;SDS011;32591;48.102;11.772;2022-12-29T01:06:25;0.85;;;0.55;;
46116;SDS011;32591;48.102;11.772;2022-12-29T01:08:52;1.88;;;0.73;;
46116;SDS011;32591;48.102;11.772;2022-12-29T01:11:33;2.35;;;0.90;;
46116;SDS011;32591;48.102;11.772;2022-12-29T01:14:00;0.85;;;0.45;;
46116;SDS011;32591;48.102;11.772;2022-12-29T01:18:54;2.05;;;0.93;;
46116;SDS011;32591;48.102;11.772;2022-12-29T01:23:49;1.15;;;0.77;;
46116;SDS011;32591;48.102;11.772;2022-12-29T01:26:17;2.88;;;0.98;;
46116;SDS011;32591;48.102;11.772;2022-12-29T01:28:44;0.95;;;0.60;;
46116;SDS011;32591;48.102;11.772;2022-12-29T01:31:12;1.40;;;0.65;;
46116;SDS011;32591;48.102;11.772;2022-12-29T01:33:41;1.42;;;1.02;;
46116;SDS011;32591;48.102;11.772;2022-12-29T01:36:09;2.20;;;0.88;;
46116;SDS011;32591;48.102;11.772;2022-12-29T01:38:40;1.02;;;0.73;;
46116;SDS011;32591;48.102;11.772;2022-12-29T01:41:08;2.58;;;0.70;;
46116;SDS011;32591;48.102;11.772;2022-12-29T01:43:41;1.17;;;0.68;;
46116;SDS011;32591;48.102;11.772;2022-12-29T01:46:13;1.48;;;0.75;;
46116;SDS011;32591;48.102;11.772;2022-12-29T01:48:49;0.98;;;0.77;;
46116;SDS011;32591;48.102;11.772;2022-12-29T01:51:20;0.38;;;0.35;;
46116;SDS011;32591;48.102;11.772;2022-12-29T01:53:51;0.90;;;0.50;;
46116;SDS011;32591;48.102;11.772;2022-12-29T01:56:19;0.68;;;0.60;;
46116;SDS011;32591;48.102;11.772;2022-12-29T01:58:48;1.20;;;0.70;;
46116;SDS011;32591;48.102;11.772;2022-12-29T02:01:20;1.73;;;0.70;;
46116;SDS011;32591;48.102;11.772;2022-12-29T02:03:47;1.10;;;0.63;;
46116;SDS011;32591;48.102;11.772;2022-12-29T02:06:17;1.05;;;0.52;;
46116;SDS011;32591;48.102;11.772;2022-12-29T02:08:50;1.05;;;0.50;;
46116;SDS011;32591;48.102;11.772;2022-12-29T02:11:19;1.35;;;0.55;;
46116;SDS011;32591;48.102;11.772;2022-12-29T02:13:49;0.93;;;0.63;;
46116;SDS011;32591;48.102;11.772;2022-12-29T02:19:06;1.48;;;0.80;;
46116;SDS011;32591;48.102;11.772;2022-12-29T02:22:05;2.28;;;0.70;;
46116;SDS011;32591;48.102;11.772;2022-12-29T02:24:48;3.35;;;1.08;;
46116;SDS011;32591;48.102;11.772;2022-12-29T02:27:43;0.98;;;0.63;;
46116;SDS011;32591;48.102;11.772;2022-12-29T02:30:35;1.20;;;0.68;;
46116;SDS011;32591;48.102;11.772;2022-12-29T02:33:12;3.08;;;0.70;;
46116;SDS011;32591;48.102;11.772;2022-12-29T02:35:50;3.72;;;0.80;;
46116;SDS011;32591;48.102;11.772;2022-12-29T02:38:28;2.45;;;1.15;;
46116;SDS011;32591;48.102;11.772;2022-12-29T02:41:14;0.70;;;0.60;;
46116;SDS011;32591;48.102;11.772;2022-12-29T02:43:48;3.85;;;1.05;;
46116;SDS011;32591;48.102;11.772;2022-12-29T02:46:21;2.75;;;0.80;;
46116;SDS011;32591;48.102;11.772;2022-12-29T02:48:57;1.00;;;0.70;;
46116;SDS011;32591;48.102;11.772;2022-12-29T02:51:35;1.42;;;0.88;;
46116;SDS011;32591;48.102;11.772;2022-12-29T02:54:09;0.75;;;0.60;;
46116;SDS011;32591;48.102;11.772;2022-12-29T02:56:53;1.92;;;0.95;;
46116;SDS011;32591;48.102;11.772;2022-12-29T02:59:20;1.58;;;0.77;;
46116;SDS011;32591;48.102;11.772;2022-12-29T03:02:07;0.55;;;0.45;;
46116;SDS011;32591;48.102;11.772;2022-12-29T03:05:03;0.85;;;0.70;;
46116;SDS011;32591;48.102;11.772;2022-12-29T03:07:44;1.27;;;0.60;;
46116;SDS011;32591;48.102;11.772;2022-12-29T03:10:25;0.90;;;0.65;;
46116;SDS011;32591;48.102;11.772;2022-12-29T03:13:04;1.85;;;0.93;;
46116;SDS011;32591;48.102;11.772;2022-12-29T03:16:00;1.25;;;0.70;;
46116;SDS011;32591;48.102;11.772;2022-12-29T03:18:37;1.55;;;0.63;;
46116;SDS011;32591;48.102;11.772;2022-12-29T03:21:13;1.38;;;0.60;;
46116;SDS011;32591;48.102;11.772;2022-12-29T03:23:46;0.52;;;0.52;;
46116;SDS011;32591;48.102;11.772;2022-12-29T03:26:16;1.00;;;0.60;;
46116;SDS011;32591;48.102;11.772;2022-12-29T03:28:45;1.10;;;0.63;;
46116;SDS011;32591;48.102;11.772;2022-12-29T03:31:17;1.95;;;0.70;;
46116;SDS011;32591;48.102;11.772;2022-12-29T03:33:47;0.95;;;0.70;;
46116;SDS011;32591;48.102;11.772;2022-12-29T03:36:17;0.85;;;0.73;;
46116;SDS011;32591;48.102;11.772;2022-12-29T03:38:53;1.73;;;1.08;;
46116;SDS011;32591;48.102;11.772;2022-12-29T03:41:27;0.75;;;0.70;;
46116;SDS011;32591;48.102;11.772;2022-12-29T03:43:57;1.80;;;1.10;;
46116;SDS011;32591;48.102;11.772;2022-12-29T03:46:24;1.40;;;0.70;;
46116;SDS011;32591;48.102;11.772;2022-12-29T03:51:19;0.82;;;0.50;;
46116;SDS011;32591;48.102;11.772;2022-12-29T03:53:47;0.88;;;0.60;;
46116;SDS011;32591;48.102;11.772;2022-12-29T03:58:40;1.38;;;0.90;;
46116;SDS011;32591;48.102;11.772;2022-12-29T04:03:34;1.23;;;0.60;;
46116;SDS011;32591;48.102;11.772;2022-12-29T04:06:02;1.88;;;1.02;;
46116;SDS011;32591;48.102;11.772;2022-12-29T04:08:30;2.05;;;0.95;;
46116;SDS011;32591;48.102;11.772;2022-12-29T04:10:56;1.20;;;0.55;;
46116;SDS011;32591;48.102;11.772;2022-12-29T04:15:51;1.48;;;0.80;;
46116;SDS011;32591;48.102;11.772;2022-12-29T04:20:45;1.27;;;0.80;;
46116;SDS011;32591;48.102;11.772;2022-12-29T04:23:29;1.88;;;0.82;;
46116;SDS011;32591;48.102;11.772;2022-12-29T04:25:58;0.95;;;0.75;;
46116;SDS011;32591;48.102;11.772;2022-12-29T04:28:25;1.63;;;0.98;;
46116;SDS011;32591;48.102;11.772;2022-12-29T04:30:53;2.35;;;0.95;;
46116;SDS011;32591;48.102;11.772;2022-12-29T04:33:20;1.98;;;0.90;;
46116;SDS011;32591;48.102;11.772;2022-12-29T04:35:48;2.17;;;0.82;;
46116;SDS011;32591;48.102;11.772;2022-12-29T04:38:17;1.10;;;0.50;;
46116;SDS011;32591;48.102;11.772;2022-12-29T04:43:13;0.68;;;0.68;;
46116;SDS011;32591;48.102;11.772;2022-12-29T04:45:42;1.70;;;0.70;;
46116;SDS011;32591;48.102;11.772;2022-12-29T04:48:10;0.77;;;0.75;;
46116;SDS011;32591;48.102;11.772;2022-12-29T04:50:38;0.70;;;0.60;;
46116;SDS011;32591;48.102;11.772;2022-12-29T04:53:06;0.90;;;0.60;;
46116;SDS011;32591;48.102;11.772;2022-12-29T04:55:33;1.17;;;0.77;;
46116;SDS011;32591;48.102;11.772;2022-12-29T04:58:02;1.00;;;0.73;;
46116;SDS011;32591;48.102;11.772;2022-12-29T05:00:28;1.00;;;0.68;;
46116;SDS011;32591;48.102;11.772;2022-12-29T05:05:22;0.85;;;0.60;;
46116;SDS011;32591;48.102;11.772;2022-12-29T05:10:16;1.23;;;0.65;;
46116;SDS011;32591;48.102;11.772;2022-12-29T05:12:43;1.27;;;0.50;;
46116;SDS011;32591;48.102;11.772;2022-12-29T05:20:06;1.60;;;0.80;;
46116;SDS011;32591;48.102;11.772;2022-12-29T05:22:34;2.05;;;0.77;;
46116;SDS011;32591;48.102;11.772;2022-12-29T05:27:34;1.58;;;0.80;;
46116;SDS011;32591;48.102;11.772;2022-12-29T05:32:29;1.43;;;0.80;;
46116;SDS011;32591;48.102;11.772;2022-12-29T05:34:56;1.10;;;0.70;;
46116;SDS011;32591;48.102;11.772;2022-12-29T05:39:50;1.63;;;0.80;;
46116;SDS011;32591;48.102;11.772;2022-12-29T05:44:44;2.15;;;0.90;;
46116;SDS011;32591;48.102;11.772;2022-12-29T05:49:39;1.52;;;1.10;;
46116;SDS011;32591;48.102;11.772;2022-12-29T05:52:06;2.17;;;0.93;;
46116;SDS011;32591;48.102;11.772;2022-12-29T05:56:59;2.17;;;0.90;;
46116;SDS011;32591;48.102;11.772;2022-12-29T06:01:53;2.88;;;1.80;;
46116;SDS011;32591;48.102;11.772;2022-12-29T06:04:20;2.20;;;1.40;;
46116;SDS011;32591;48.102;11.772;2022-12-29T06:09:15;1.55;;;0.98;;
46116;SDS011;32591;48.102;11.772;2022-12-29T06:11:42;1.85;;;1.15;;
46116;SDS011;32591;48.102;11.772;2022-12-29T06:16:36;1.40;;;0.70;;
46116;SDS011;32591;48.102;11.772;2022-12-29T06:21:30;1.20;;;0.70;;
46116;SDS011;32591;48.102;11.772;2022-12-29T06:23:58;1.77;;;1.25;;
46116;SDS011;32591;48.102;11.772;2022-12-29T06:26:25;4.50;;;1.17;;
46116;SDS011;32591;48.102;11.772;2022-12-29T06:28:52;1.65;;;0.90;;
46116;SDS011;32591;48.102;11.772;2022-12-29T06:31:19;1.83;;;0.90;;
46116;SDS011;32591;48.102;11.772;2022-12-29T06:33:47;0.60;;;0.60;;
46116;SDS011;32591;48.102;11.772;2022-12-29T06:38:40;2.45;;;0.88;;
46116;SDS011;32591;48.102;11.772;2022-12-29T06:43:36;2.70;;;1.15;;
46116;SDS011;32591;48.102;11.772;2022-12-29T06:46:03;2.05;;;1.05;;
46116;SDS011;32591;48.102;11.772;2022-12-29T06:48:30;3.00;;;1.00;;
46116;SDS011;32591;48.102;11.772;2022-12-29T06:53:24;1.88;;;0.90;;
46116;SDS011;32591;48.102;11.772;2022-12-29T06:58:19;1.92;;;1.13;;
46116;SDS011;32591;48.102;11.772;2022-12-29T07:00:46;2.10;;;1.58;;
46116;SDS011;32591;48.102;11.772;2022-12-29T07:03:14;3.80;;;1.85;;
46116;SDS011;32591;48.102;11.772;2022-12-29T07:05:41;5.68;;;2.22;;
46116;SDS011;32591;48.102;11.772;2022-12-29T07:10:35;3.25;;;1.77;;
46116;SDS011;32591;48.102;11.772;2022-12-29T07:13:02;2.03;;;1.20;;
46116;SDS011;32591;48.102;11.772;2022-12-29T07:17:58;1.58;;;0.90;;
46116;SDS011;32591;48.102;11.772;2022-12-29T07:20:25;1.55;;;0.98;;
46116;SDS011;32591;48.102;11.772;2022-12-29T07:25:19;2.40;;;1.05;;
46116;SDS011;32591;48.102;11.772;2022-12-29T07:30:13;0.90;;;0.75;;
46116;SDS011;32591;48.102;11.772;2022-12-29T07:32:42;1.88;;;0.90;;
46116;SDS011;32591;48.102;11.772;2022-12-29T07:35:09;1.85;;;1.23;;
46116;SDS011;32591;48.102;11.772;2022-12-29T07:40:03;1.88;;;1.00;;
46116;SDS011;32591;48.102;11.772;2022-12-29T07:42:31;1.52;;;0.85;;
46116;SDS011;32591;48.102;11.772;2022-12-29T07:44:58;1.65;;;0.93;;
46116;SDS011;32591;48.102;11.772;2022-12-29T07:49:53;1.25;;;0.98;;
46116;SDS011;32591;48.102;11.772;2022-12-29T07:52:20;2.67;;;0.98;;
46116;SDS011;32591;48.102;11.772;2022-12-29T07:57:14;1.67;;;1.20;;
46116;SDS011;32591;48.102;11.772;2022-12-29T07:59:41;2.03;;;1.02;;
46116;SDS011;32591;48.102;11.772;2022-12-29T08:02:09;2.00;;;1.10;;
46116;SDS011;32591;48.102;11.772;2022-12-29T08:04:36;2.88;;;1.45;;
46116;SDS011;32591;48.102;11.772;2022-12-29T08:11:58;2.50;;;1.10;;
46116;SDS011;32591;48.102;11.772;2022-12-29T08:16:52;1.90;;;1.40;;
46116;SDS011;32591;48.102;11.772;2022-12-29T08:21:46;2.10;;;1.10;;
46116;SDS011;32591;48.102;11.772;2022-12-29T08:24:14;1.95;;;1.17;;
46116;SDS011;32591;48.102;11.772;2022-12-29T08:26:41;1.80;;;1.08;;
46116;SDS011;32591;48.102;11.772;2022-12-29T08:31:35;2.28;;;1.30;;
46116;SDS011;32591;48.102;11.772;2022-12-29T08:34:02;1.63;;;1.00;;
46116;SDS011;32591;48.102;11.772;2022-12-29T08:36:30;2.33;;;1.20;;
46116;SDS011;32591;48.102;11.772;2022-12-29T08:38:57;1.92;;;1.30;;
46116;SDS011;32591;48.102;11.772;2022-12-29T08:43:53;2.28;;;1.00;;
46116;SDS011;32591;48.102;11.772;2022-12-29T08:46:20;4.97;;;1.45;;
46116;SDS011;32591;48.102;11.772;2022-12-29T08:48:47;1.95;;;1.13;;
46116;SDS011;32591;48.102;11.772;2022-12-29T08:53:42;1.60;;;1.00;;
46116;SDS011;32591;48.102;11.772;2022-12-29T08:56:09;3.15;;;1.35;;
46116;SDS011;32591;48.102;11.772;2022-12-29T08:58:38;1.35;;;0.73;;
46116;SDS011;32591;48.102;11.772;2022-12-29T09:01:05;4.63;;;1.50;;
46116;SDS011;32591;48.102;11.772;2022-12-29T09:03:32;1.38;;;1.10;;
46116;SDS011;32591;48.102;11.772;2022-12-29T09:05:59;1.58;;;1.02;;
46116;SDS011;32591;48.102;11.772;2022-12-29T09:10:53;1.60;;;1.13;;
46116;SDS011;32591;48.102;11.772;2022-12-29T09:13:20;1.85;;;1.10;;
46116;SDS011;32591;48.102;11.772;2022-12-29T09:15:48;4.28;;;1.30;;
46116;SDS011;32591;48.102;11.772;2022-12-29T09:18:24;1.85;;;0.93;;
46116;SDS011;32591;48.102;11.772;2022-12-29T09:20:55;2.35;;;1.25;;
46116;SDS011;32591;48.102;11.772;2022-12-29T09:23:23;1.52;;;1.08;;
46116;SDS011;32591;48.102;11.772;2022-12-29T09:25:50;1.80;;;1.00;;
46116;SDS011;32591;48.102;11.772;2022-12-29T09:28:17;1.40;;;0.85;;
46116;SDS011;32591;48.102;11.772;2022-12-29T09:30:45;2.15;;;1.20;;
46116;SDS011;32591;48.102;11.772;2022-12-29T09:33:13;2.00;;;1.20;;
46116;SDS011;32591;48.102;11.772;2022-12-29T09:35:41;2.35;;;1.25;;
46116;SDS011;32591;48.102;11.772;2022-12-29T09:38:09;2.70;;;1.30;;
46116;SDS011;32591;48.102;11.772;2022-12-29T09:40:37;2.88;;;1.42;;
46116;SDS011;32591;48.102;11.772;2022-12-29T09:46:00;2.17;;;1.30;;
46116;SDS011;32591;48.102;11.772;2022-12-29T09:48:43;3.55;;;1.40;;
46116;SDS011;32591;48.102;11.772;2022-12-29T09:51:15;2.17;;;1.63;;
46116;SDS011;32591;48.102;11.772;2022-12-29T09:53:49;3.40;;;1.80;;
46116;SDS011;32591;48.102;11.772;2022-12-29T09:56:23;2.70;;;2.00;;
46116;SDS011;32591;48.102;11.772;2022-12-29T09:58:54;2.13;;;1.50;;
46116;SDS011;32591;48.102;11.772;2022-12-29T10:01:28;2.70;;;1.50;;
46116;SDS011;32591;48.102;11.772;2022-12-29T10:04:01;1.73;;;1.10;;
46116;SDS011;32591;48.102;11.772;2022-12-29T10:06:32;2.20;;;1.00;;
46116;SDS011;32591;48.102;11.772;2022-12-29T10:09:06;1.58;;;1.08;;
46116;SDS011;32591;48.102;11.772;2022-12-29T10:11:51;1.70;;;1.08;;
46116;SDS011;32591;48.102;11.772;2022-12-29T10:14:33;3.00;;;1.00;;
46116;SDS011;32591;48.102;11.772;2022-12-29T10:17:17;1.80;;;0.85;;
46116;SDS011;32591;48.102;11.772;2022-12-29T10:20:03;1.35;;;1.00;;
46116;SDS011;32591;48.102;11.772;2022-12-29T10:22:54;1.70;;;0.95;;
46116;SDS011;32591;48.102;11.772;2022-12-29T10:25:46;1.13;;;0.80;;
46116;SDS011;32591;48.102;11.772;2022-12-29T10:28:15;1.45;;;0.93;;
46116;SDS011;32591;48.102;11.772;2022-12-29T10:30:47;1.50;;;1.00;;
46116;SDS011;32591;48.102;11.772;2022-12-29T10:33:17;3.15;;;1.30;;
46116;SDS011;32591;48.102;11.772;2022-12-29T10:35:50;2.58;;;1.48;;
46116;SDS011;32591;48.102;11.772;2022-12-29T10:38:20;2.42;;;1.52;;
46116;SDS011;32591;48.102;11.772;2022-12-29T10:40:57;3.22;;;1.52;;
46116;SDS011;32591;48.102;11.772;2022-12-29T10:43:27;1.90;;;1.33;;
46116;SDS011;32591;48.102;11.772;2022-12-29T10:45:57;4.88;;;1.60;;
46116;SDS011;32591;48.102;11.772;2022-12-29T10:48:28;3.17;;;1.40;;
46116;SDS011;32591;48.102;11.772;2022-12-29T10:51:00;2.17;;;1.05;;
46116;SDS011;32591;48.102;11.772;2022-12-29T10:53:32;2.33;;;1.10;;
46116;SDS011;32591;48.102;11.772;2022-12-29T10:56:20;1.73;;;1.00;;
46116;SDS011;32591;48.102;11.772;2022-12-29T10:58:57;2.72;;;1.13;;
46116;SDS011;32591;48.102;11.772;2022-12-29T11:01:34;2.67;;;1.27;;
46116;SDS011;32591;48.102;11.772;2022-12-29T11:04:12;2.55;;;1.30;;
46116;SDS011;32591;48.102;11.772;2022-12-29T11:06:59;2.00;;;1.27;;
46116;SDS011;32591;48.102;11.772;2022-12-29T11:09:28;3.00;;;1.95;;
46116;SDS011;32591;48.102;11.772;2022-12-29T11:11:57;2.40;;;1.52;;
46116;SDS011;32591;48.102;11.772;2022-12-29T11:14:26;2.33;;;1.00;;
46116;SDS011;32591;48.102;11.772;2022-12-29T11:16:56;1.83;;;1.20;;
46116;SDS011;32591;48.102;11.772;2022-12-29T11:19:25;1.65;;;1.05;;
46116;SDS011;32591;48.102;11.772;2022-12-29T11:21:54;2.92;;;1.17;;
46116;SDS011;32591;48.102;11.772;2022-12-29T11:24:23;1.63;;;0.85;;
46116;SDS011;32591;48.102;11.772;2022-12-29T11:26:53;1.35;;;0.77;;
46116;SDS011;32591;48.102;11.772;2022-12-29T11:29:24;2.40;;;1.10;;
46116;SDS011;32591;48.102;11.772;2022-12-29T11:31:54;4.63;;;1.10;;
46116;SDS011;32591;48.102;11.772;2022-12-29T11:34:24;5.70;;;3.30;;
46116;SDS011;32591;48.102;11.772;2022-12-29T11:36:58;2.65;;;1.73;;
46116;SDS011;32591;48.102;11.772;2022-12-29T11:39:32;2.75;;;2.08;;
46116;SDS011;32591;48.102;11.772;2022-12-29T11:42:04;3.90;;;1.20;;
46116;SDS011;32591;48.102;11.772;2022-12-29T11:44:42;2.75;;;1.70;;
46116;SDS011;32591;48.102;11.772;2022-12-29T11:47:13;3.10;;;1.75;;
46116;SDS011;32591;48.102;11.772;2022-12-29T11:49:50;3.90;;;1.90;;
46116;SDS011;32591;48.102;11.772;2022-12-29T11:52:23;2.63;;;1.20;;
46116;SDS011;32591;48.102;11.772;2022-12-29T11:54:53;1.75;;;1.13;;
46116;SDS011;32591;48.102;11.772;2022-12-29T11:57:22;2.70;;;1.00;;
46116;SDS011;32591;48.102;11.772;2022-12-29T11:59:51;3.33;;;1.02;;
46116;SDS011;32591;48.102;11.772;2022-12-29T12:02:34;1.42;;;0.75;;
46116;SDS011;32591;48.102;11.772;2022-12-29T12:05:22;2.03;;;0.90;;
46116;SDS011;32591;48.102;11.772;2022-12-29T12:07:57;1.50;;;0.90;;
46116;SDS011;32591;48.102;11.772;2022-12-29T12:10:31;1.15;;;1.00;;
46116;SDS011;32591;48.102;11.772;2022-12-29T12:13:08;1.45;;;0.82;;
46116;SDS011;32591;48.102;11.772;2022-12-29T12:15:47;1.23;;;0.90;;
46116;SDS011;32591;48.102;11.772;2022-12-29T12:18:23;1.48;;;0.95;;
46116;SDS011;32591;48.102;11.772;2022-12-29T12:21:00;1.58;;;0.90;;
46116;SDS011;32591;48.102;11.772;2022-12-29T12:26:11;1.67;;;0.85;;
46116;SDS011;32591;48.102;11.772;2022-12-29T12:28:44;1.55;;;0.93;;
46116;SDS011;32591;48.102;11.772;2022-12-29T12:31:20;2.70;;;1.75;;
46116;SDS011;32591;48.102;11.772;2022-12-29T12:33:57;2.53;;;1.20;;
46116;SDS011;32591;48.102;11.772;2022-12-29T12:36:34;1.40;;;1.00;;
46116;SDS011;32591;48.102;11.772;2022-12-29T12:39:19;3.03;;;1.42;;
46116;SDS011;32591;48.102;11.772;2022-12-29T12:41:57;1.77;;;0.90;;
46116;SDS011;32591;48.102;11.772;2022-12-29T12:44:46;1.45;;;0.80;;
46116;SDS011;32591;48.102;11.772;2022-12-29T12:47:46;1.30;;;0.77;;
46116;SDS011;32591;48.102;11.772;2022-12-29T12:50:32;1.42;;;0.82;;
46116;SDS011;32591;48.102;11.772;2022-12-29T12:55:56;1.92;;;0.90;;
46116;SDS011;32591;48.102;11.772;2022-12-29T12:58:39;4.70;;;0.90;;
46116;SDS011;32591;48.102;11.772;2022-12-29T13:01:17;3.35;;;1.75;;
46116;SDS011;32591;48.102;11.772;2022-12-29T13:04:02;2.20;;;1.00;;
46116;SDS011;32591;48.102;11.772;2022-12-29T13:07:12;1.30;;;0.80;;
46116;SDS011;32591;48.102;11.772;2022-12-29T13:09:51;1.85;;;1.10;;
46116;SDS011;32591;48.102;11.772;2022-12-29T13:12:44;1.63;;;0.90;;
46116;SDS011;32591;48.102;11.772;2022-12-29T13:15:24;2.00;;;1.05;;
46116;SDS011;32591;48.102;11.772;2022-12-29T13:18:06;1.65;;;0.80;;
46116;SDS011;32591;48.102;11.772;2022-12-29T13:20:45;1.67;;;0.90;;
46116;SDS011;32591;48.102;11.772;2022-12-29T13:23:22;2.43;;;1.00;;
46116;SDS011;32591;48.102;11.772;2022-12-29T13:25:55;0.93;;;0.85;;
46116;SDS011;32591;48.102;11.772;2022-12-29T13:28:31;1.00;;;0.88;;
46116;SDS011;32591;48.102;11.772;2022-12-29T13:31:19;4.72;;;1.42;;
46116;SDS011;32591;48.102;11.772;2022-12-29T13:33:54;1.35;;;0.82;;
46116;SDS011;32591;48.102;11.772;2022-12-29T13:36:33;2.75;;;1.10;;
46116;SDS011;32591;48.102;11.772;2022-12-29T13:39:05;1.48;;;1.02;;
46116;SDS011;32591;48.102;11.772;2022-12-29T13:41:39;1.60;;;1.00;;
46116;SDS011;32591;48.102;11.772;2022-12-29T13:44:11;1.65;;;1.00;;
46116;SDS011;32591;48.102;11.772;2022-12-29T13:46:45;1.92;;;1.40;;
46116;SDS011;32591;48.102;11.772;2022-12-29T13:49:14;2.45;;;1.10;;
46116;SDS011;32591;48.102;11.772;2022-12-29T13:51:46;1.52;;;1.10;;
46116;SDS011;32591;48.102;11.772;2022-12-29T13:54:19;2.40;;;1.20;;
46116;SDS011;32591;48.102;11.772;2022-12-29T13:56:59;3.40;;;1.77;;
46116;SDS011;32591;48.102;11.772;2022-12-29T13:59:36;5.95;;;2.75;;
46116;SDS011;32591;48.102;11.772;2022-12-29T14:02:16;3.22;;;1.98;;
46116;SDS011;32591;48.102;11.772;2022-12-29T14:04:57;3.67;;;1.95;;
46116;SDS011;32591;48.102;11.772;2022-12-29T14:07:26;2.95;;;1.27;;
46116;SDS011;32591;48.102;11.772;2022-12-29T14:09:55;3.42;;;1.33;;
46116;SDS011;32591;48.102;11.772;2022-12-29T14:12:30;3.42;;;1.88;;
46116;SDS011;32591;48.102;11.772;2022-12-29T14:15:05;5.43;;;2.15;;
46116;SDS011;32591;48.102;11.772;2022-12-29T14:18:00;4.93;;;1.77;;
46116;SDS011;32591;48.102;11.772;2022-12-29T14:20:31;4.85;;;1.88;;
46116;SDS011;32591;48.102;11.772;2022-12-29T14:23:01;3.97;;;1.73;;
46116;SDS011;32591;48.102;11.772;2022-12-29T14:25:51;2.30;;;1.60;;
46116;SDS011;32591;48.102;11.772;2022-12-29T14:28:23;2.47;;;1.90;;
46116;SDS011;32591;48.102;11.772;2022-12-29T14:30:52;5.63;;;2.60;;
46116;SDS011;32591;48.102;11.772;2022-12-29T14:33:23;8.05;;;4.43;;
46116;SDS011;32591;48.102;11.772;2022-12-29T14:35:53;5.90;;;3.53;;
46116;SDS011;32591;48.102;11.772;2022-12-29T14:38:25;4.38;;;2.90;;
46116;SDS011;32591;48.102;11.772;2022-12-29T14:41:15;4.47;;;3.03;;
46116;SDS011;32591;48.102;11.772;2022-12-29T14:43:53;4.85;;;2.80;;
46116;SDS011;32591;48.102;11.772;2022-12-29T14:46:24;3.80;;;2.78;;
46116;SDS011;32591;48.102;11.772;2022-12-29T14:49:16;2.67;;;1.73;;
46116;SDS011;32591;48.102;11.772;2022-12-29T14:51:46;3.53;;;2.05;;
46116;SDS011;32591;48.102;11.772;2022-12-29T15:00:16;6.00;;;4.22;;
46116;SDS011;32591;48.102;11.772;2022-12-29T15:02:46;4.38;;;3.13;;
46116;SDS011;32591;48.102;11.772;2022-12-29T15:05:27;4.03;;;2.65;;
46116;SDS011;32591;48.102;11.772;2022-12-29T15:07:58;5.82;;;3.42;;
46116;SDS011;32591;48.102;11.772;2022-12-29T15:10:30;4.82;;;2.75;;
46116;SDS011;32591;48.102;11.772;2022-12-29T15:13:04;5.53;;;3.67;;
46116;SDS011;32591;48.102;11.772;2022-12-29T15:18:12;3.42;;;1.80;;
46116;SDS011;32591;48.102;11.772;2022-12-29T15:20:49;3.13;;;2.20;;
46116;SDS011;32591;48.102;11.772;2022-12-29T15:23:20;2.78;;;1.60;;
46116;SDS011;32591;48.102;11.772;2022-12-29T15:25:49;3.40;;;1.83;;
46116;SDS011;32591;48.102;11.772;2022-12-29T15:28:20;3.88;;;2.47;;
46116;SDS011;32591;48.102;11.772;2022-12-29T15:30:52;7.45;;;3.20;;
46116;SDS011;32591;48.102;11.772;2022-12-29T15:33:22;4.68;;;2.47;;
46116;SDS011;32591;48.102;11.772;2022-12-29T15:35:52;4.80;;;3.15;;
46116;SDS011;32591;48.102;11.772;2022-12-29T15:38:22;4.82;;;2.97;;
46116;SDS011;32591;48.102;11.772;2022-12-29T15:40:52;3.90;;;2.28;;
46116;SDS011;32591;48.102;11.772;2022-12-29T15:43:26;4.10;;;2.08;;
46116;SDS011;32591;48.102;11.772;2022-12-29T15:46:07;7.30;;;3.83;;
46116;SDS011;32591;48.102;11.772;2022-12-29T15:48:37;5.93;;;3.55;;
46116;SDS011;32591;48.102;11.772;2022-12-29T15:51:11;4.93;;;2.53;;
46116;SDS011;32591;48.102;11.772;2022-12-29T15:53:46;7.65;;;3.55;;
46116;SDS011;32591;48.102;11.772;2022-12-29T15:56:15;6.57;;;1.77;;
46116;SDS011;32591;48.102;11.772;2022-12-29T15:58:43;4.47;;;2.80;;
46116;SDS011;32591;48.102;11.772;2022-12-29T16:01:17;4.72;;;2.28;;
46116;SDS011;32591;48.102;11.772;2022-12-29T16:03:49;3.25;;;1.77;;
46116;SDS011;32591;48.102;11.772;2022-12-29T16:06:26;3.88;;;2.40;;
46116;SDS011;32591;48.102;11.772;2022-12-29T16:08:57;3.17;;;2.15;;
46116;SDS011;32591;48.102;11.772;2022-12-29T16:11:29;4.10;;;2.00;;
46116;SDS011;32591;48.102;11.772;2022-12-29T16:14:00;3.58;;;1.90;;
46116;SDS011;32591;48.102;11.772;2022-12-29T16:16:29;4.55;;;2.00;;
46116;SDS011;32591;48.102;11.772;2022-12-29T16:19:01;3.80;;;2.38;;
46116;SDS011;32591;48.102;11.772;2022-12-29T16:21:37;5.13;;;2.42;;
46116;SDS011;32591;48.102;11.772;2022-12-29T16:24:05;4.65;;;3.20;;
46116;SDS011;32591;48.102;11.772;2022-12-29T16:26:38;6.90;;;3.97;;
46116;SDS011;32591;48.102;11.772;2022-12-29T16:29:12;6.55;;;3.78;;
46116;SDS011;32591;48.102;11.772;2022-12-29T16:31:47;9.57;;;4.90;;
46116;SDS011;32591;48.102;11.772;2022-12-29T16:34:26;11.57;;;6.25;;
46116;SDS011;32591;48.102;11.772;2022-12-29T16:36:58;10.00;;;6.13;;
46116;SDS011;32591;48.102;11.772;2022-12-29T16:39:27;14.35;;;7.75;;
46116;SDS011;32591;48.102;11.772;2022-12-29T16:45:08;7.53;;;3.65;;
46116;SDS011;32591;48.102;11.772;2022-12-29T16:48:26;9.10;;;4.13;;
46116;SDS011;32591;48.102;11.772;2022-12-29T16:51:00;7.10;;;4.38;;
46116;SDS011;32591;48.102;11.772;2022-12-29T16:53:32;7.82;;;3.85;;
46116;SDS011;32591;48.102;11.772;2022-12-29T16:56:03;6.15;;;3.20;;
46116;SDS011;32591;48.102;11.772;2022-12-29T16:58:35;4.57;;;2.33;;
46116;SDS011;32591;48.102;11.772;2022-12-29T17:01:03;6.10;;;2.90;;
46116;SDS011;32591;48.102;11.772;2022-12-29T17:03:40;5.75;;;2.83;;
46116;SDS011;32591;48.102;11.772;2022-12-29T17:06:14;8.20;;;3.08;;
46116;SDS011;32591;48.102;11.772;2022-12-29T17:08:43;5.60;;;2.88;;
46116;SDS011;32591;48.102;11.772;2022-12-29T17:11:18;4.78;;;2.70;;
46116;SDS011;32591;48.102;11.772;2022-12-29T17:14:19;6.03;;;3.33;;
46116;SDS011;32591;48.102;11.772;2022-12-29T17:16:57;6.10;;;4.00;;